Time;durP1;ratioP1;P1;durP2;ratioP2;P2;SDS_P1;SDS_P2;PMS_P1;PMS_P2;Temp;Humidity;BMP_temperature;BMP_pressure;BME280_temperature;BME280_humidity;BME280_pressure;Samples;Min_cycle;Max_cycle;Signal;HPM_P1;HPM_P2
2021/11/23 00:01:31;;;;;;;3.50;2.50;;;2.40;99.90;;;;;;5031814;28;20199;-69
2021/11/23 00:03:57;;;;;;;4.40;3.00;;;2.30;99.90;;;;;;5032158;28;20241;-72
2021/11/23 00:06:22;;;;;;;2.80;2.60;;;2.30;99.90;;;;;;5031852;28;20220;-72
2021/11/23 00:08:48;;;;;;;1.80;1.70;;;2.30;99.90;;;;;;5031877;28;20663;-71
2021/11/23 00:11:14;;;;;;;2.90;2.40;;;2.30;99.90;;;;;;5031737;28;20438;-72
2021/11/23 00:13:40;;;;;;;3.50;2.30;;;2.30;99.90;;;;;;5031744;28;20206;-71
2021/11/23 00:16:09;;;;;;;2.20;2.00;;;2.30;99.90;;;;;;5031686;28;20781;-72
2021/11/23 00:18:34;;;;;;;3.37;2.40;;;2.20;99.90;;;;;;5032027;28;20262;-72
2021/11/23 00:21:00;;;;;;;2.53;2.33;;;2.20;99.90;;;;;;5031806;28;20529;-72
2021/11/23 00:23:29;;;;;;;3.70;2.27;;;2.30;99.90;;;;;;5032091;28;20171;-72
2021/11/23 00:25:55;;;;;;;5.07;3.20;;;2.20;99.90;;;;;;5032250;28;20207;-72
2021/11/23 00:28:21;;;;;;;2.00;1.80;;;2.20;99.90;;;;;;5032275;28;20817;-73
2021/11/23 00:30:49;;;;;;;2.57;1.97;;;2.20;99.90;;;;;;5033220;28;20437;-72
2021/11/23 00:33:18;;;;;;;4.63;3.60;;;2.20;99.90;;;;;;5032779;28;20666;-71
2021/11/23 00:35:46;;;;;;;3.87;2.43;;;2.20;99.90;;;;;;5033073;28;20398;-72
2021/11/23 00:38:13;;;;;;;2.10;2.00;;;2.20;99.90;;;;;;5031939;28;20422;-72
2021/11/23 00:40:38;;;;;;;2.17;1.97;;;2.20;99.90;;;;;;5032635;28;20799;-72
2021/11/23 00:43:04;;;;;;;3.17;2.37;;;2.10;99.90;;;;;;5032770;28;20485;-72
2021/11/23 00:45:35;;;;;;;2.80;2.60;;;2.10;99.90;;;;;;5032885;28;20167;-72
2021/11/23 00:48:02;;;;;;;4.60;2.50;;;2.10;99.90;;;;;;5033515;28;20845;-73
2021/11/23 00:50:29;;;;;;;3.27;3.00;;;2.10;99.90;;;;;;5032944;28;20430;-74
2021/11/23 00:53:14;;;;;;;4.00;3.00;;;2.10;99.90;;;;;;5032576;28;20448;-72
2021/11/23 00:55:39;;;;;;;2.73;1.60;;;2.10;99.90;;;;;;5032057;28;20432;-74
2021/11/23 00:58:05;;;;;;;3.73;3.43;;;2.10;99.90;;;;;;5033749;28;20402;-73
2021/11/23 01:00:31;;;;;;;7.13;2.40;;;2.10;99.90;;;;;;5033672;28;20219;-71
2021/11/23 01:02:58;;;;;;;3.60;2.73;;;2.10;99.90;;;;;;5033608;28;20926;-71
2021/11/23 01:05:23;;;;;;;6.20;3.60;;;2.20;99.90;;;;;;5033058;28;20505;-72
2021/11/23 01:07:49;;;;;;;2.50;2.07;;;2.10;99.90;;;;;;5033523;28;20480;-72
2021/11/23 01:10:15;;;;;;;2.63;2.43;;;2.10;99.90;;;;;;5034977;28;20338;-71
2021/11/23 01:12:40;;;;;;;10.53;3.60;;;2.10;99.90;;;;;;5036953;28;20168;-69
2021/11/23 01:15:13;;;;;;;3.70;3.10;;;2.10;99.90;;;;;;5036004;28;20450;-72
2021/11/23 01:17:38;;;;;;;1.70;1.60;;;2.20;99.90;;;;;;5036373;28;20174;-70
2021/11/23 01:20:06;;;;;;;4.43;3.20;;;2.20;99.90;;;;;;5036844;28;20612;-71
2021/11/23 01:22:32;;;;;;;3.30;2.47;;;2.20;99.90;;;;;;5036586;28;20187;-72
2021/11/23 01:24:57;;;;;;;2.50;2.17;;;2.20;99.90;;;;;;5037535;28;20428;-72
2021/11/23 01:27:25;;;;;;;3.30;3.00;;;2.10;99.90;;;;;;5036364;28;20167;-71
2021/11/23 01:29:54;;;;;;;4.60;2.63;;;2.10;99.90;;;;;;5036334;28;20187;-70
2021/11/23 01:32:20;;;;;;;4.57;3.07;;;2.10;99.90;;;;;;5036523;28;20463;-71
2021/11/23 01:34:45;;;;;;;3.53;3.10;;;2.20;99.90;;;;;;5036437;28;20476;-71
2021/11/23 01:37:11;;;;;;;3.17;2.10;;;2.10;99.90;;;;;;5036957;28;20175;-72
2021/11/23 01:39:37;;;;;;;4.30;3.50;;;2.20;99.90;;;;;;5036554;28;20228;-72
2021/11/23 01:42:02;;;;;;;2.70;2.50;;;2.20;99.90;;;;;;5035945;28;20171;-73
2021/11/23 01:44:28;;;;;;;3.97;2.83;;;2.20;99.90;;;;;;5037567;28;20179;-72
2021/11/23 01:46:57;;;;;;;2.97;2.77;;;2.20;99.90;;;;;;5035834;28;20266;-72
2021/11/23 01:49:22;;;;;;;2.33;2.07;;;2.20;99.90;;;;;;5034037;28;20410;-72
2021/11/23 01:51:48;;;;;;;3.50;3.30;;;2.20;99.90;;;;;;5035260;28;20766;-71
2021/11/23 01:54:25;;;;;;;3.03;2.83;;;2.20;99.90;;;;;;5035148;28;20203;-72
2021/11/23 01:56:51;;;;;;;3.73;2.43;;;2.20;99.90;;;;;;5035416;28;20406;-72
2021/11/23 01:59:17;;;;;;;3.13;2.23;;;2.40;99.90;;;;;;5034574;28;20816;-72
2021/11/23 02:01:43;;;;;;;3.20;2.27;;;2.40;99.90;;;;;;5029947;28;20434;-72
2021/11/23 02:04:12;;;;;;;13.77;3.13;;;2.50;99.90;;;;;;5028174;28;20952;-72
2021/11/23 02:06:38;;;;;;;1.70;1.60;;;2.50;99.90;;;;;;5028178;28;20214;-72
2021/11/23 02:09:04;;;;;;;2.50;2.30;;;2.50;99.90;;;;;;5034718;28;20402;-72
2021/11/23 02:11:30;;;;;;;2.13;1.97;;;2.50;99.90;;;;;;5018327;28;20188;-71
2021/11/23 02:13:56;;;;;;;5.40;2.43;;;2.50;99.90;;;;;;5014719;28;20451;-74
2021/11/23 02:16:22;;;;;;;5.20;3.37;;;2.50;99.90;;;;;;5015049;28;20774;-71
2021/11/23 02:18:49;;;;;;;4.13;3.73;;;2.60;99.90;;;;;;5019514;28;20433;-70
2021/11/23 02:21:15;;;;;;;3.60;3.27;;;2.60;99.90;;;;;;5013615;28;20446;-71
2021/11/23 02:23:40;;;;;;;6.03;4.13;;;2.60;99.90;;;;;;5015502;28;20937;-70
2021/11/23 02:26:06;;;;;;;2.50;2.30;;;2.70;99.90;;;;;;5034437;28;20163;-72
2021/11/23 02:28:35;;;;;;;2.63;2.43;;;2.70;99.90;;;;;;5034557;28;20266;-72
2021/11/23 02:31:02;;;;;;;4.33;3.93;;;2.80;99.90;;;;;;5036413;28;20431;-72
2021/11/23 02:33:29;;;;;;;3.93;3.47;;;2.80;99.90;;;;;;5017387;28;20499;-72
2021/11/23 02:35:58;;;;;;;2.73;2.53;;;2.80;99.90;;;;;;5030010;28;20839;-73
2021/11/23 02:38:25;;;;;;;4.87;2.97;;;2.80;99.90;;;;;;5037379;28;20399;-72
2021/11/23 02:40:52;;;;;;;3.87;2.47;;;2.80;99.90;;;;;;5036563;28;20986;-71
2021/11/23 02:43:18;;;;;;;3.37;2.87;;;2.90;99.90;;;;;;5037184;28;20449;-72
2021/11/23 02:46:08;;;;;;;3.40;3.00;;;2.90;99.90;;;;;;5037697;28;20420;-72
2021/11/23 02:48:35;;;;;;;2.47;2.27;;;3.00;99.90;;;;;;5038445;28;20406;-72
2021/11/23 02:51:13;;;;;;;2.93;2.53;;;3.00;99.90;;;;;;5038109;28;20467;-71
2021/11/23 02:53:39;;;;;;;3.50;3.20;;;3.10;99.90;;;;;;5037403;28;20503;-72
2021/11/23 02:56:05;;;;;;;3.10;2.80;;;3.10;99.90;;;;;;5038049;28;20407;-71
2021/11/23 02:58:33;;;;;;;3.57;3.20;;;3.20;99.90;;;;;;5038657;28;20195;-73
2021/11/23 03:01:07;;;;;;;4.30;3.30;;;3.20;99.90;;;;;;5038337;28;20461;-72
2021/11/23 03:03:36;;;;;;;3.40;2.37;;;3.30;99.90;;;;;;5035163;28;20417;-72
2021/11/23 03:06:12;;;;;;;2.87;2.33;;;3.30;99.90;;;;;;5033706;28;20421;-71
2021/11/23 03:08:41;;;;;;;5.23;2.97;;;3.40;99.90;;;;;;5035385;28;20437;-71
2021/11/23 03:11:12;;;;;;;2.43;2.23;;;3.40;99.90;;;;;;5034741;28;20941;-71
2021/11/23 03:13:41;;;;;;;4.83;2.60;;;3.50;99.90;;;;;;5034310;28;20453;-69
2021/11/23 03:16:07;;;;;;;4.43;2.90;;;3.50;99.90;;;;;;5034382;28;20399;-71
2021/11/23 03:18:33;;;;;;;2.97;2.60;;;3.60;99.90;;;;;;5034269;28;20766;-70
2021/11/23 03:21:05;;;;;;;2.73;2.50;;;3.60;99.90;;;;;;5034430;28;20207;-71
2021/11/23 03:23:33;;;;;;;6.10;3.70;;;3.70;99.90;;;;;;5034586;28;20194;-72
2021/11/23 03:25:59;;;;;;;3.20;2.90;;;3.70;99.90;;;;;;5035572;28;20442;-71
2021/11/23 03:28:25;;;;;;;2.70;2.00;;;3.80;99.90;;;;;;5035697;28;20409;-71
2021/11/23 03:30:51;;;;;;;3.37;3.00;;;3.80;99.90;;;;;;5021756;28;20451;-71
2021/11/23 03:33:17;;;;;;;5.83;3.67;;;3.80;99.90;;;;;;5015522;28;20228;-70
2021/11/23 03:35:46;;;;;;;2.50;2.27;;;3.80;99.90;;;;;;5015632;28;20667;-71
2021/11/23 03:38:13;;;;;;;6.27;3.20;;;3.80;99.90;;;;;;5015570;28;20172;-70
2021/11/23 03:40:43;;;;;;;3.30;2.93;;;3.90;99.90;;;;;;5015068;28;20443;-71
2021/11/23 03:43:10;;;;;;;4.93;2.33;;;3.90;99.90;;;;;;5013945;28;20406;-70
2021/11/23 03:45:36;;;;;;;2.83;1.97;;;3.80;99.90;;;;;;5013560;28;20411;-70
2021/11/23 03:48:03;;;;;;;3.83;2.57;;;3.70;99.90;;;;;;5014010;28;20411;-71
2021/11/23 03:50:29;;;;;;;2.93;2.20;;;3.80;99.90;;;;;;5014263;28;20435;-69
2021/11/23 03:52:56;;;;;;;5.77;2.70;;;3.80;99.90;;;;;;5015113;28;20442;-70
2021/11/23 03:55:22;;;;;;;5.67;3.80;;;3.80;99.90;;;;;;5015917;28;20495;-72
2021/11/23 03:58:02;;;;;;;4.23;3.20;;;3.80;99.90;;;;;;5015118;28;20410;-71
2021/11/23 04:00:28;;;;;;;3.80;3.37;;;3.80;99.90;;;;;;5014511;28;20934;-70
2021/11/23 04:02:54;;;;;;;2.87;2.53;;;3.80;99.90;;;;;;5015373;28;20403;-70
2021/11/23 04:05:21;;;;;;;6.80;4.67;;;3.80;99.90;;;;;;5015639;28;20404;-71
2021/11/23 04:07:46;;;;;;;6.43;2.27;;;3.80;99.90;;;;;;5015284;28;20407;-71
2021/11/23 04:10:14;;;;;;;2.70;2.30;;;3.80;99.90;;;;;;5015062;28;20427;-71
2021/11/23 04:12:40;;;;;;;3.30;2.73;;;3.80;99.90;;;;;;5016479;28;20173;-71
2021/11/23 04:15:07;;;;;;;2.80;1.97;;;3.80;99.90;;;;;;5015664;28;20814;-70
2021/11/23 04:17:36;;;;;;;5.23;4.07;;;3.80;99.90;;;;;;5017552;28;20172;-72
2021/11/23 04:20:06;;;;;;;3.13;2.60;;;3.90;99.90;;;;;;5017899;28;20431;-71
2021/11/23 04:22:32;;;;;;;3.83;2.43;;;3.90;99.90;;;;;;5017252;28;20522;-70
2021/11/23 04:24:58;;;;;;;2.83;2.63;;;3.90;99.90;;;;;;5016248;28;20403;-73
2021/11/23 04:27:24;;;;;;;2.97;2.77;;;3.90;99.90;;;;;;5014089;28;20476;-73
2021/11/23 04:29:52;;;;;;;3.50;3.20;;;4.00;99.90;;;;;;5015240;28;20192;-74
2021/11/23 04:32:18;;;;;;;3.67;3.03;;;4.00;99.90;;;;;;5015583;28;20173;-73
2021/11/23 04:34:43;;;;;;;4.00;3.50;;;3.90;99.90;;;;;;5014674;28;20517;-73
2021/11/23 04:37:15;;;;;;;4.87;4.43;;;4.00;99.90;;;;;;5015167;28;20176;-72
2021/11/23 04:39:40;;;;;;;4.33;2.50;;;4.00;99.90;;;;;;5015254;28;20200;-72
2021/11/23 04:42:09;;;;;;;5.60;3.53;;;4.00;99.90;;;;;;5015282;28;20414;-73
2021/11/23 04:44:34;;;;;;;3.70;2.57;;;4.00;99.90;;;;;;5015963;28;20210;-73
2021/11/23 04:47:00;;;;;;;3.50;2.87;;;4.00;99.90;;;;;;5018156;28;20454;-72
2021/11/23 04:49:25;;;;;;;3.43;3.00;;;4.00;99.90;;;;;;5018795;28;20222;-73
2021/11/23 04:51:51;;;;;;;3.67;3.37;;;4.00;99.90;;;;;;5021559;28;20203;-72
2021/11/23 04:54:17;;;;;;;3.90;2.80;;;4.00;99.90;;;;;;5017119;28;20196;-69
2021/11/23 04:56:45;;;;;;;5.47;3.97;;;4.00;99.90;;;;;;5016088;28;20172;-69
2021/11/23 04:59:14;;;;;;;5.83;3.00;;;4.00;99.90;;;;;;5016149;28;20160;-69
2021/11/23 05:01:40;;;;;;;3.80;2.93;;;4.10;99.90;;;;;;5016258;28;20791;-68
2021/11/23 05:04:06;;;;;;;3.00;2.70;;;4.10;99.90;;;;;;5016096;28;20422;-69
2021/11/23 05:06:32;;;;;;;5.40;3.90;;;4.10;99.90;;;;;;5015685;28;20203;-68
2021/11/23 05:08:57;;;;;;;5.03;4.50;;;4.10;99.90;;;;;;5015440;28;20164;-67
2021/11/23 05:11:26;;;;;;;8.47;6.53;;;4.20;99.90;;;;;;5015377;28;20271;-68
2021/11/23 05:13:52;;;;;;;2.93;2.30;;;4.10;99.90;;;;;;5015255;28;20311;-69
2021/11/23 05:16:18;;;;;;;4.73;3.50;;;4.20;99.90;;;;;;5015500;28;20446;-68
2021/11/23 05:18:43;;;;;;;11.60;3.60;;;4.20;99.90;;;;;;5015426;28;20250;-68
2021/11/23 05:21:09;;;;;;;5.77;3.33;;;4.20;99.90;;;;;;5015161;28;20211;-68
2021/11/23 05:23:35;;;;;;;6.27;3.47;;;4.30;99.90;;;;;;5015267;28;20177;-68
2021/11/23 05:26:00;;;;;;;5.97;4.33;;;4.30;99.90;;;;;;5015417;28;20226;-68
2021/11/23 05:28:26;;;;;;;4.17;3.10;;;4.30;99.90;;;;;;5015138;28;20177;-68
2021/11/23 05:30:52;;;;;;;3.60;3.30;;;4.30;99.90;;;;;;5014997;28;20572;-68
2021/11/23 05:33:18;;;;;;;6.70;3.43;;;4.30;99.90;;;;;;5015028;28;20200;-68
2021/11/23 05:35:49;;;;;;;4.80;3.00;;;4.40;99.90;;;;;;5015012;28;20494;-69
2021/11/23 05:38:15;;;;;;;4.17;3.60;;;4.30;99.90;;;;;;5014830;28;20827;-69
2021/11/23 05:40:41;;;;;;;5.53;3.50;;;4.20;99.90;;;;;;5014670;28;20428;-70
2021/11/23 05:43:07;;;;;;;8.90;3.70;;;4.30;99.90;;;;;;5014734;28;20411;-69
2021/11/23 05:45:32;;;;;;;11.17;6.27;;;4.30;99.90;;;;;;5014680;28;20412;-69
2021/11/23 05:47:58;;;;;;;5.07;4.10;;;4.30;99.90;;;;;;5014829;28;20179;-68
2021/11/23 05:50:23;;;;;;;7.83;5.13;;;4.30;99.90;;;;;;5014491;28;20188;-69
2021/11/23 05:52:49;;;;;;;6.70;4.03;;;4.30;99.90;;;;;;5013174;28;20279;-69
2021/11/23 05:55:14;;;;;;;5.63;3.83;;;4.30;99.90;;;;;;5014042;28;20286;-69
2021/11/23 05:57:40;;;;;;;5.83;4.60;;;4.30;99.90;;;;;;5012531;28;20176;-67
2021/11/23 06:00:06;;;;;;;6.93;3.90;;;4.40;99.90;;;;;;5014311;28;20199;-68
2021/11/23 06:02:32;;;;;;;5.80;4.97;;;4.40;99.90;;;;;;5014525;28;20571;-68
2021/11/23 06:05:00;;;;;;;4.53;3.60;;;4.40;99.90;;;;;;5019566;28;20556;-67
2021/11/23 06:07:25;;;;;;;5.83;4.47;;;4.50;99.90;;;;;;5033045;28;20453;-67
2021/11/23 06:09:51;;;;;;;5.67;4.03;;;4.40;99.90;;;;;;5032589;28;20536;-67
2021/11/23 06:12:17;;;;;;;5.83;4.77;;;4.40;99.90;;;;;;5033959;28;20667;-67
2021/11/23 06:14:51;;;;;;;5.37;4.20;;;4.50;99.90;;;;;;5033725;28;20199;-69
2021/11/23 06:17:17;;;;;;;7.30;3.47;;;4.50;99.90;;;;;;5033961;28;20171;-69
2021/11/23 06:19:43;;;;;;;4.97;4.53;;;4.50;99.90;;;;;;5033490;28;20430;-67
2021/11/23 06:22:09;;;;;;;5.50;3.97;;;4.60;99.90;;;;;;5033813;28;20589;-68
2021/11/23 06:24:36;;;;;;;5.47;4.80;;;4.60;99.90;;;;;;5033954;28;20172;-69
2021/11/23 06:27:01;;;;;;;5.27;3.93;;;4.70;99.90;;;;;;5033654;28;20425;-67
2021/11/23 06:29:29;;;;;;;6.90;4.40;;;4.70;99.90;;;;;;5033602;28;20517;-67
2021/11/23 06:31:58;;;;;;;6.00;4.50;;;4.80;99.90;;;;;;5033844;28;20206;-69
2021/11/23 06:34:24;;;;;;;4.63;3.87;;;4.80;99.90;;;;;;5033247;28;20504;-68
2021/11/23 06:36:49;;;;;;;6.90;4.73;;;4.70;99.90;;;;;;5033465;28;20422;-68
2021/11/23 06:39:15;;;;;;;8.07;5.00;;;4.70;99.90;;;;;;5032993;28;20607;-68
2021/11/23 06:41:43;;;;;;;6.90;3.00;;;4.70;99.90;;;;;;5033564;28;20178;-67
2021/11/23 06:44:12;;;;;;;6.07;4.50;;;4.80;99.90;;;;;;5032090;28;20183;-68
2021/11/23 06:46:38;;;;;;;6.70;4.63;;;4.70;99.90;;;;;;5033590;28;20421;-70
2021/11/23 06:49:04;;;;;;;6.83;4.67;;;4.70;99.90;;;;;;5033344;28;20418;-67
2021/11/23 06:51:32;;;;;;;5.70;4.00;;;4.70;99.90;;;;;;5033528;28;20191;-67
2021/11/23 06:53:58;;;;;;;6.90;4.40;;;4.80;99.90;;;;;;5033331;28;20230;-67
2021/11/23 06:56:23;;;;;;;11.63;5.13;;;4.80;99.90;;;;;;5033230;28;20406;-67
2021/11/23 06:58:49;;;;;;;7.73;4.80;;;4.80;99.90;;;;;;5033240;28;20171;-68
2021/11/23 07:01:16;;;;;;;7.20;3.90;;;4.90;99.90;;;;;;5033178;28;20184;-67
2021/11/23 07:03:44;;;;;;;12.60;5.67;;;4.90;99.90;;;;;;5032926;28;20448;-67
2021/11/23 07:06:24;;;;;;;6.87;5.07;;;4.80;99.90;;;;;;5033320;28;20778;-68
2021/11/23 07:08:50;;;;;;;10.97;4.43;;;4.90;99.90;;;;;;5032926;28;20429;-66
2021/11/23 07:11:16;;;;;;;6.90;5.13;;;4.90;99.90;;;;;;5033387;28;20423;-67
2021/11/23 07:13:42;;;;;;;11.10;4.43;;;4.80;99.90;;;;;;5033149;28;20716;-67
2021/11/23 07:16:08;;;;;;;6.37;5.47;;;4.90;99.90;;;;;;5033573;28;20182;-68
2021/11/23 07:18:34;;;;;;;6.30;4.53;;;4.90;99.90;;;;;;5032835;28;20489;-67
2021/11/23 07:21:00;;;;;;;4.57;3.20;;;5.00;99.90;;;;;;5032161;28;20430;-68
2021/11/23 07:23:25;;;;;;;8.87;5.20;;;5.00;99.90;;;;;;5032736;28;20258;-68
2021/11/23 07:25:51;;;;;;;10.70;4.27;;;5.00;99.90;;;;;;5032601;28;20176;-69
2021/11/23 07:28:17;;;;;;;9.10;5.13;;;4.90;99.90;;;;;;5032682;28;20259;-67
2021/11/23 07:30:43;;;;;;;10.40;5.07;;;4.90;99.90;;;;;;5032267;28;20187;-67
2021/11/23 07:33:09;;;;;;;10.47;4.30;;;4.90;99.90;;;;;;5032471;28;20759;-68
2021/11/23 07:35:35;;;;;;;11.50;5.80;;;5.00;99.90;;;;;;5032456;28;20819;-68
2021/11/23 07:38:00;;;;;;;9.87;5.83;;;4.90;99.90;;;;;;5032515;28;20179;-68
2021/11/23 07:40:32;;;;;;;7.90;4.80;;;5.00;99.90;;;;;;5032435;28;20191;-69
2021/11/23 07:43:01;;;;;;;7.40;4.23;;;4.90;99.90;;;;;;5015064;28;20631;-70
2021/11/23 07:45:27;;;;;;;10.80;6.00;;;5.00;99.90;;;;;;5032850;28;20407;-70
2021/11/23 07:47:53;;;;;;;8.23;4.70;;;5.10;99.90;;;;;;5032525;28;20406;-69
2021/11/23 07:50:18;;;;;;;5.83;3.10;;;5.10;99.90;;;;;;5032387;28;20184;-70
2021/11/23 07:52:44;;;;;;;6.23;5.60;;;5.10;99.90;;;;;;5032245;28;20418;-72
2021/11/23 07:55:09;;;;;;;5.50;3.87;;;5.10;99.90;;;;;;5032051;28;20211;-68
2021/11/23 07:57:37;;;;;;;6.33;4.43;;;5.10;99.90;;;;;;5032164;28;20174;-70
2021/11/23 08:00:05;;;;;;;7.70;5.30;;;5.00;99.90;;;;;;5031973;28;20199;-70
2021/11/23 08:02:30;;;;;;;6.67;4.47;;;5.10;99.90;;;;;;5032160;28;20795;-69
2021/11/23 08:04:57;;;;;;;7.83;4.43;;;5.10;99.90;;;;;;5031920;28;20410;-68
2021/11/23 08:07:24;;;;;;;5.40;3.50;;;5.10;99.90;;;;;;5032156;28;20298;-68
2021/11/23 08:09:50;;;;;;;5.60;4.67;;;5.10;99.90;;;;;;5031744;28;20492;-68
2021/11/23 08:12:16;;;;;;;7.77;5.70;;;5.10;99.90;;;;;;5032388;28;20426;-68
2021/11/23 08:14:42;;;;;;;13.70;4.17;;;5.10;99.90;;;;;;5032038;28;20492;-69
2021/11/23 08:17:07;;;;;;;11.30;4.27;;;5.10;99.90;;;;;;5032334;28;20410;-68
2021/11/23 08:19:33;;;;;;;5.90;4.73;;;5.30;99.90;;;;;;5031645;28;20767;-68
2021/11/23 08:21:59;;;;;;;8.43;5.20;;;5.30;99.90;;;;;;5032228;28;20289;-69
2021/11/23 08:24:24;;;;;;;15.53;5.93;;;5.30;99.90;;;;;;5032311;28;20179;-69
2021/11/23 08:26:50;;;;;;;6.73;6.00;;;5.40;99.90;;;;;;5031890;28;20202;-69
2021/11/23 08:29:16;;;;;;;4.33;3.93;;;5.20;99.90;;;;;;5031535;28;20624;-69
2021/11/23 08:31:42;;;;;;;7.20;4.80;;;5.30;99.90;;;;;;5029683;28;20175;-71
2021/11/23 08:34:08;;;;;;;8.50;4.80;;;5.30;99.90;;;;;;5031755;28;20207;-69
2021/11/23 08:36:34;;;;;;;9.93;4.57;;;5.40;99.90;;;;;;5031751;28;20784;-69
2021/11/23 08:39:02;;;;;;;6.57;5.23;;;5.40;99.90;;;;;;5031753;28;20176;-70
2021/11/23 08:41:27;;;;;;;9.63;6.33;;;5.40;99.90;;;;;;5031676;28;20460;-69
2021/11/23 08:43:53;;;;;;;11.37;5.57;;;5.40;99.90;;;;;;5031514;28;20442;-70
2021/11/23 08:46:19;;;;;;;5.73;4.97;;;5.50;99.90;;;;;;5031666;28;20179;-73
2021/11/23 08:48:45;;;;;;;6.70;4.80;;;5.50;99.90;;;;;;5031635;28;20409;-68
2021/11/23 08:51:15;;;;;;;8.30;6.27;;;5.60;99.90;;;;;;5031727;28;20925;-68
2021/11/23 08:53:41;;;;;;;6.87;3.80;;;5.50;99.90;;;;;;5031394;28;20446;-68
2021/11/23 08:56:08;;;;;;;8.03;4.90;;;5.60;99.90;;;;;;5031117;28;20429;-68
2021/11/23 08:58:35;;;;;;;8.63;5.83;;;5.60;99.90;;;;;;5031201;28;20898;-69
2021/11/23 09:01:00;;;;;;;7.67;4.17;;;5.50;99.90;;;;;;5031560;28;20430;-67
2021/11/23 09:03:27;;;;;;;8.37;4.33;;;5.60;99.90;;;;;;5031448;28;20760;-69
2021/11/23 09:05:53;;;;;;;13.80;6.97;;;5.70;99.90;;;;;;5031641;28;20188;-68
2021/11/23 09:08:18;;;;;;;6.40;3.77;;;5.70;99.90;;;;;;5031659;28;20827;-69
2021/11/23 09:10:44;;;;;;;17.37;6.00;;;5.70;99.90;;;;;;5029044;28;20434;-70
2021/11/23 09:13:10;;;;;;;7.10;6.03;;;5.70;99.90;;;;;;5025595;28;20172;-68
2021/11/23 09:15:37;;;;;;;7.03;5.23;;;5.90;99.90;;;;;;5030245;28;20494;-71
2021/11/23 09:18:04;;;;;;;6.40;4.33;;;5.80;99.90;;;;;;5031497;28;20418;-68
2021/11/23 09:20:35;;;;;;;5.80;3.97;;;5.90;99.90;;;;;;5030039;28;20802;-68
2021/11/23 09:23:03;;;;;;;6.40;3.60;;;5.70;99.90;;;;;;5011565;28;20492;-68
2021/11/23 09:25:29;;;;;;;8.17;3.83;;;5.80;99.90;;;;;;5011417;28;20470;-69
2021/11/23 09:27:59;;;;;;;6.20;4.50;;;5.90;99.90;;;;;;5012541;28;20411;-68
2021/11/23 09:30:25;;;;;;;10.40;5.20;;;5.90;99.90;;;;;;5011191;28;20181;-70
2021/11/23 09:32:51;;;;;;;8.90;4.53;;;5.80;99.90;;;;;;5014761;28;20414;-71
2021/11/23 09:35:18;;;;;;;8.40;4.63;;;6.00;99.90;;;;;;5014896;28;20462;-69
2021/11/23 09:37:44;;;;;;;6.17;4.17;;;6.00;99.90;;;;;;5015071;28;20442;-69
2021/11/23 09:40:10;;;;;;;5.30;3.50;;;6.10;99.90;;;;;;5014895;28;20479;-69
2021/11/23 09:42:36;;;;;;;7.20;4.23;;;6.00;99.90;;;;;;5015255;28;20172;-69
2021/11/23 09:45:04;;;;;;;5.60;4.23;;;6.00;99.90;;;;;;5015640;28;20441;-69
2021/11/23 09:47:30;;;;;;;7.97;3.40;;;6.00;99.90;;;;;;5014800;28;20682;-69
2021/11/23 09:49:58;;;;;;;8.20;4.50;;;6.00;99.90;;;;;;5015246;28;20473;-68
2021/11/23 09:52:24;;;;;;;4.60;3.70;;;5.90;99.90;;;;;;5014690;28;20407;-67
2021/11/23 09:54:50;;;;;;;8.90;2.80;;;5.90;99.90;;;;;;5014657;28;20477;-68
2021/11/23 09:57:16;;;;;;;6.93;4.53;;;6.00;99.90;;;;;;5015091;28;20180;-70
2021/11/23 09:59:42;;;;;;;6.93;4.37;;;6.00;99.90;;;;;;5014465;28;20196;-69
2021/11/23 10:02:08;;;;;;;9.37;3.53;;;6.10;99.90;;;;;;5014740;28;20495;-67
2021/11/23 10:04:36;;;;;;;5.03;4.53;;;6.20;99.90;;;;;;5014461;28;20168;-69
2021/11/23 10:07:04;;;;;;;5.40;4.70;;;6.20;99.90;;;;;;5014524;28;20829;-69
2021/11/23 10:09:39;;;;;;;7.30;4.70;;;6.20;99.90;;;;;;5014475;28;20534;-68
2021/11/23 10:12:27;;;;;;;5.17;3.97;;;6.30;99.90;;;;;;5023500;28;20420;-68
2021/11/23 10:15:09;;;;;;;4.63;3.50;;;6.20;99.90;;;;;;5034135;28;20953;-70
2021/11/23 10:17:36;;;;;;;9.03;4.97;;;6.20;99.90;;;;;;5032693;28;20929;-69
2021/11/23 10:20:02;;;;;;;6.73;4.10;;;6.20;99.90;;;;;;5033808;28;20449;-69
2021/11/23 10:22:33;;;;;;;10.57;4.53;;;6.20;99.90;;;;;;5033025;28;20936;-70
2021/11/23 10:25:01;;;;;;;9.13;4.40;;;6.30;99.90;;;;;;5034263;28;20410;-68
2021/11/23 10:27:27;;;;;;;12.73;5.00;;;6.40;99.90;;;;;;5033948;28;20437;-69
2021/11/23 10:29:52;;;;;;;11.33;5.30;;;6.40;99.90;;;;;;5033428;28;20926;-69
2021/11/23 10:32:18;;;;;;;5.57;3.40;;;6.40;99.90;;;;;;5033647;28;20838;-67
2021/11/23 10:34:45;;;;;;;6.83;4.27;;;6.50;99.90;;;;;;5022779;28;20283;-70
2021/11/23 10:37:27;;;;;;;9.10;5.30;;;6.40;99.90;;;;;;5014102;28;20647;-69
2021/11/23 10:39:52;;;;;;;7.73;5.07;;;6.40;99.90;;;;;;5013934;28;20431;-70
2021/11/23 10:42:19;;;;;;;7.53;5.53;;;6.40;99.90;;;;;;5013433;28;20409;-69
2021/11/23 10:44:56;;;;;;;7.63;5.63;;;6.30;99.90;;;;;;5014049;28;20164;-70
2021/11/23 10:47:21;;;;;;;6.63;5.63;;;6.30;99.90;;;;;;5030845;28;20936;-69
2021/11/23 10:49:48;;;;;;;6.70;3.90;;;6.30;99.90;;;;;;5033478;28;20446;-70
2021/11/23 10:52:36;;;;;;;6.33;3.97;;;6.40;99.90;;;;;;5033501;28;20163;-70
2021/11/23 10:55:07;;;;;;;7.37;4.43;;;6.40;99.90;;;;;;5033365;28;20542;-71
2021/11/23 10:57:40;;;;;;;4.07;3.60;;;6.60;99.90;;;;;;5033499;28;20532;-69
2021/11/23 11:00:08;;;;;;;3.87;3.00;;;6.70;99.90;;;;;;5033687;28;20867;-70
2021/11/23 11:02:35;;;;;;;6.87;4.37;;;6.70;99.90;;;;;;5033522;28;20502;-70
2021/11/23 11:05:01;;;;;;;6.40;4.57;;;6.70;99.90;;;;;;5033358;28;20910;-69
2021/11/23 11:07:27;;;;;;;7.37;5.23;;;6.60;99.90;;;;;;5033458;28;20765;-69
2021/11/23 11:09:55;;;;;;;3.73;2.90;;;6.60;99.90;;;;;;5033652;28;20445;-68
2021/11/23 11:12:20;;;;;;;6.37;4.23;;;6.60;99.90;;;;;;5033054;28;20230;-68
2021/11/23 11:14:51;;;;;;;7.67;4.50;;;6.70;99.90;;;;;;5026914;28;20459;-69
2021/11/23 11:17:17;;;;;;;5.23;3.90;;;6.70;99.90;;;;;;5021863;28;20258;-69
2021/11/23 11:19:48;;;;;;;6.40;4.23;;;6.70;99.90;;;;;;5031845;28;20431;-68
2021/11/23 11:22:22;;;;;;;6.17;3.33;;;6.60;99.90;;;;;;5032911;28;20910;-70
2021/11/23 11:25:17;;;;;;;4.90;3.60;;;6.60;99.90;;;;;;5033260;28;20447;-69
2021/11/23 11:27:48;;;;;;;4.40;3.13;;;6.60;99.90;;;;;;5032829;28;20778;-68
2021/11/23 11:30:41;;;;;;;6.17;4.20;;;6.60;99.90;;;;;;5032509;28;20430;-68
2021/11/23 11:33:07;;;;;;;4.50;3.60;;;6.80;99.90;;;;;;5032591;28;20406;-68
2021/11/23 11:35:38;;;;;;;6.07;4.13;;;6.70;99.90;;;;;;5032414;28;20406;-68
2021/11/23 11:38:08;;;;;;;5.20;3.60;;;6.70;99.90;;;;;;5032562;28;20174;-68
2021/11/23 11:40:41;;;;;;;6.53;4.50;;;6.80;99.90;;;;;;5032175;28;20422;-68
2021/11/23 11:43:09;;;;;;;5.30;3.40;;;6.90;99.90;;;;;;5032077;28;20407;-69
2021/11/23 11:45:42;;;;;;;4.70;3.00;;;6.90;99.90;;;;;;5032247;28;20497;-69
2021/11/23 11:48:46;;;;;;;7.00;3.70;;;6.90;99.90;;;;;;5032581;28;20786;-68
2021/11/23 11:51:15;;;;;;;6.23;4.07;;;7.00;99.90;;;;;;5031423;28;20434;-68
2021/11/23 11:53:46;;;;;;;10.57;4.13;;;7.00;99.90;;;;;;5031289;28;20446;-68
2021/11/23 11:56:14;;;;;;;8.27;4.90;;;7.10;99.90;;;;;;5032286;28;20902;-69
2021/11/23 11:58:51;;;;;;;9.47;5.27;;;7.00;99.90;;;;;;5031967;28;20918;-68
2021/11/23 12:01:35;;;;;;;7.17;4.53;;;7.00;99.90;;;;;;5012344;28;20466;-69
2021/11/23 12:04:17;;;;;;;4.93;4.30;;;7.00;99.90;;;;;;5012216;28;20439;-68
2021/11/23 12:07:00;;;;;;;4.93;3.73;;;7.10;99.90;;;;;;5011049;28;20914;-69
2021/11/23 12:09:33;;;;;;;4.70;3.97;;;7.00;99.90;;;;;;5012069;28;20490;-68
2021/11/23 12:12:32;;;;;;;7.83;3.57;;;7.10;99.90;;;;;;5012087;28;20423;-67
2021/11/23 12:15:09;;;;;;;5.63;4.50;;;7.00;99.90;;;;;;5011948;28;20458;-67
2021/11/23 12:17:50;;;;;;;6.87;4.10;;;7.00;99.90;;;;;;5014080;28;20402;-67
2021/11/23 12:20:18;;;;;;;8.13;4.07;;;7.10;99.90;;;;;;5031108;28;20438;-68
2021/11/23 12:22:48;;;;;;;7.10;3.77;;;7.10;99.90;;;;;;5030459;28;20434;-69
2021/11/23 12:25:19;;;;;;;7.47;4.70;;;7.10;99.90;;;;;;5031441;28;20449;-69
2021/11/23 12:27:46;;;;;;;9.33;5.70;;;7.20;99.90;;;;;;5031915;28;20854;-70
2021/11/23 12:30:18;;;;;;;6.63;4.23;;;7.10;99.90;;;;;;5031638;28;20423;-70
2021/11/23 12:32:45;;;;;;;7.40;4.30;;;7.20;99.90;;;;;;5031691;28;20408;-70
2021/11/23 12:35:14;;;;;;;5.00;4.50;;;7.30;99.90;;;;;;5031107;28;20550;-70
2021/11/23 12:37:43;;;;;;;7.00;3.47;;;7.30;99.90;;;;;;5031930;28;20478;-72
2021/11/23 12:40:14;;;;;;;4.70;3.47;;;7.30;99.90;;;;;;5012415;28;20954;-69
2021/11/23 12:42:51;;;;;;;7.20;4.13;;;7.30;99.90;;;;;;5012620;28;20404;-69
2021/11/23 12:45:18;;;;;;;4.90;3.77;;;7.40;99.90;;;;;;5019717;28;20412;-70
2021/11/23 12:47:49;;;;;;;5.17;3.80;;;7.30;99.90;;;;;;5014367;28;20486;-67
2021/11/23 12:50:15;;;;;;;6.93;4.50;;;7.20;99.90;;;;;;5012837;28;20429;-69
2021/11/23 12:52:40;;;;;;;10.17;5.03;;;7.30;99.90;;;;;;5012633;28;20407;-70
2021/11/23 12:55:06;;;;;;;8.80;4.47;;;7.20;99.90;;;;;;5012916;28;20209;-69
2021/11/23 12:57:32;;;;;;;9.40;4.40;;;7.40;99.90;;;;;;5032939;28;20171;-69
2021/11/23 13:00:02;;;;;;;7.70;4.13;;;7.30;99.90;;;;;;5042265;28;20430;-70